Time;durP1;ratioP1;P1;durP2;ratioP2;P2;SDS_P1;SDS_P2;PMS_P1;PMS_P2;Temp;Humidity;BMP_temperature;BMP_pressure;BME280_temperature;BME280_humidity;BME280_pressure;Samples;Min_cycle;Max_cycle;Signal;HPM_P1;HPM_P2
2022/08/08 00:00:20;;;;;;;3.77;3.40;;;;;;;15.46;100.00;96722.16;5029800;28;101981;-62
2022/08/08 00:02:57;;;;;;;3.20;3.00;;;;;;;15.43;100.00;96725.38;5029491;28;105270;-62
2022/08/08 00:05:31;;;;;;;3.10;2.90;;;;;;;15.41;100.00;96722.97;5016213;28;106169;-62
2022/08/08 00:08:10;;;;;;;3.07;2.87;;;;;;;15.13;100.00;96728.09;5029885;28;105500;-62
2022/08/08 00:10:48;;;;;;;3.00;2.80;;;;;;;15.06;100.00;96736.41;5029209;28;105247;-61
2022/08/08 00:13:23;;;;;;;3.17;2.87;;;;;;;15.22;100.00;96729.16;5029642;28;102339;-62
2022/08/08 00:15:59;;;;;;;2.77;2.57;;;;;;;15.27;100.00;96723.78;5029340;28;105055;-62
2022/08/08 00:18:36;;;;;;;3.27;2.70;;;;;;;15.31;100.00;96730.22;5029089;28;105526;-62
2022/08/08 00:21:04;;;;;;;3.40;3.13;;;;;;;15.12;100.00;96726.47;5029736;28;101821;-62
2022/08/08 00:23:41;;;;;;;3.27;2.97;;;;;;;15.24;100.00;96724.31;5029077;28;103756;-62
2022/08/08 00:26:12;;;;;;;2.90;2.70;;;;;;;15.27;100.00;96727.25;5028509;28;105375;-62
2022/08/08 00:28:43;;;;;;;3.10;2.80;;;;;;;15.24;100.00;96724.31;5034437;27;102272;-62
2022/08/08 00:31:17;;;;;;;3.30;3.00;;;;;;;15.20;100.00;96724.06;5030134;27;102727;-62
2022/08/08 00:35:09;;;;;;;3.23;3.03;;;;;;;15.21;100.00;96722.19;5030821;27;101717;-62
2022/08/08 00:36:49;;;;;;;2.83;2.63;;;;;;;15.23;100.00;96722.72;5029093;28;105153;-62
2022/08/08 00:39:26;;;;;;;3.00;2.80;;;;;;;15.17;100.00;96718.44;5028972;28;105651;-62
2022/08/08 00:42:30;;;;;;;3.13;2.93;;;;;;;14.96;100.00;96719.53;5029263;28;101802;-62
2022/08/08 00:45:31;;;;;;;2.80;2.70;;;;;;;14.83;100.00;96718.19;5029260;28;104558;-62
2022/08/08 00:48:41;;;;;;;2.90;2.70;;;;;;;14.82;100.00;96715.81;5030193;28;102577;-62
2022/08/08 00:51:44;;;;;;;3.10;2.90;;;;;;;14.79;100.00;96714.47;4989643;27;102500;-62
2022/08/08 00:54:41;;;;;;;3.20;2.90;;;;;;;14.88;100.00;96709.38;5033417;27;102250;-62
2022/08/08 00:58:04;;;;;;;3.10;2.80;;;;;;;14.86;100.00;96708.84;5003938;28;102560;-62
2022/08/08 01:00:41;;;;;;;3.10;2.90;;;;;;;14.77;100.00;96705.09;5028705;28;105262;-62
2022/08/08 01:03:59;;;;;;;2.90;2.70;;;;;;;14.65;100.00;96704.56;5028432;28;104902;-62
2022/08/08 01:06:56;;;;;;;2.87;2.67;;;;;;;14.66;100.00;96703.50;5028902;28;101842;-62
2022/08/08 01:10:17;;;;;;;2.93;2.73;;;;;;;14.69;100.00;96702.97;5029081;28;104925;-62
2022/08/08 01:13:20;;;;;;;2.87;2.67;;;;;;;14.76;100.00;96708.84;4954154;28;105728;-62
2022/08/08 01:16:30;;;;;;;2.87;2.70;;;;;;;14.72;100.00;96708.56;4970787;28;102028;-62
2022/08/08 01:19:32;;;;;;;3.10;2.90;;;;;;;14.76;100.00;96708.84;4989889;27;103618;-62
2022/08/08 01:22:27;;;;;;;3.10;2.90;;;;;;;14.73;100.00;96718.22;5014420;28;105794;-62
2022/08/08 01:25:15;;;;;;;3.60;3.30;;;;;;;14.73;100.00;96712.06;5028211;28;106452;-62
2022/08/08 01:28:24;;;;;;;3.37;3.10;;;;;;;14.75;100.00;96717.94;5028022;28;105853;-62
2022/08/08 01:31:24;;;;;;;3.17;2.97;;;;;;;14.78;100.00;96720.09;5028175;28;101983;-62
2022/08/08 01:34:32;;;;;;;3.03;2.83;;;;;;;14.78;100.00;96717.41;5028603;28;105182;-62
2022/08/08 01:37:42;;;;;;;3.27;2.97;;;;;;;14.71;100.00;96716.91;5018548;28;105141;-62
2022/08/08 01:40:24;;;;;;;2.93;2.73;;;;;;;14.68;100.00;96717.41;5028591;28;101940;-62
2022/08/08 01:42:58;;;;;;;2.70;2.50;;;;;;;14.61;100.00;96706.19;5028779;28;105428;-62
2022/08/08 01:45:44;;;;;;;2.83;2.63;;;;;;;14.63;100.00;96714.75;5027799;28;105490;-62
2022/08/08 01:48:23;;;;;;;3.10;2.90;;;;;;;14.51;100.00;96711.53;5031719;28;101800;-62
2022/08/08 01:51:10;;;;;;;2.90;2.70;;;;;;;14.32;100.00;96719.25;5027887;28;105440;-62
2022/08/08 01:53:47;;;;;;;3.07;2.83;;;;;;;14.15;100.00;96720.53;5028634;28;101932;-62
2022/08/08 01:56:35;;;;;;;3.00;2.80;;;;;;;14.03;100.00;96726.13;5028276;28;104707;-62
2022/08/08 01:59:20;;;;;;;3.40;3.20;;;;;;;13.92;100.00;96724.50;5027493;28;105547;-62
2022/08/08 02:02:02;;;;;;;3.23;3.03;;;;;;;14.01;100.00;96727.47;5030008;27;101877;-62
2022/08/08 02:04:37;;;;;;;3.17;2.97;;;;;;;14.00;100.00;96725.88;5031898;28;104979;-62
2022/08/08 02:07:16;;;;;;;3.00;2.80;;;;;;;13.95;100.00;96725.84;5031143;28;105570;-62
2022/08/08 02:09:56;;;;;;;2.93;2.73;;;;;;;14.02;100.00;96729.84;5034912;28;102147;-62
2022/08/08 02:12:29;;;;;;;3.17;2.80;;;;;;;14.00;100.00;96729.31;5031198;28;105461;-62
2022/08/08 02:15:04;;;;;;;3.13;2.93;;;;;;;13.87;100.00;96726.34;5031332;28;101904;-62
2022/08/08 02:17:46;;;;;;;3.50;3.20;;;;;;;13.85;100.00;96737.28;5031711;28;105531;-62
2022/08/08 02:20:27;;;;;;;4.87;3.50;;;;;;;14.02;100.00;96737.09;5030722;28;105264;-62
2022/08/08 02:23:04;;;;;;;3.87;3.57;;;;;;;13.99;100.00;96729.56;5031434;28;101973;-62
2022/08/08 02:25:41;;;;;;;3.70;3.40;;;;;;;14.01;100.00;96732.81;5031634;28;104690;-62
2022/08/08 02:28:13;;;;;;;3.70;3.40;;;;;;;14.05;100.00;96726.66;5030569;28;105642;-62
2022/08/08 02:30:52;;;;;;;3.77;3.27;;;;;;;13.86;100.00;96730.91;5031476;28;101885;-62
2022/08/08 02:33:39;;;;;;;3.87;3.57;;;;;;;13.97;100.00;96721.84;5034328;28;104974;-62
2022/08/08 02:36:24;;;;;;;3.77;3.47;;;;;;;13.92;100.00;96723.69;5031293;28;101791;-62
2022/08/08 02:39:05;;;;;;;3.90;3.60;;;;;;;13.91;100.00;96735.44;5065232;27;103860;-62
2022/08/08 02:41:57;;;;;;;3.70;3.40;;;;;;;13.93;100.00;96725.28;5064467;27;105352;-62
2022/08/08 02:45:05;;;;;;;3.23;3.03;;;;;;;13.97;100.00;96726.38;5031263;28;102035;-62
2022/08/08 02:48:05;;;;;;;3.63;3.43;;;;;;;14.03;100.00;96725.31;5031057;28;104862;-62
2022/08/08 02:51:23;;;;;;;3.80;3.50;;;;;;;14.05;100.00;96723.19;5030517;28;105274;-62
2022/08/08 02:54:31;;;;;;;3.60;3.30;;;;;;;14.06;100.00;96730.16;5030681;28;101846;-62
2022/08/08 02:57:37;;;;;;;3.97;3.70;;;;;;;13.89;100.00;96742.94;5030947;28;105237;-62
2022/08/08 03:00:29;;;;;;;3.70;3.50;;;;;;;13.79;100.00;96741.00;5032060;28;105417;-62
2022/08/08 03:03:44;;;;;;;4.00;3.60;;;;;;;13.79;100.00;96750.91;5030810;28;105055;-62
2022/08/08 03:06:47;;;;;;;3.83;3.47;;;;;;;13.92;100.00;96753.09;5030032;28;105593;-62
2022/08/08 03:10:05;;;;;;;3.97;3.63;;;;;;;13.78;100.00;96746.59;5028540;28;102026;-62
2022/08/08 03:13:15;;;;;;;3.70;3.47;;;;;;;13.66;100.00;96748.69;5030663;27;105188;-62
2022/08/08 03:16:10;;;;;;;3.83;3.63;;;;;;;13.73;100.00;96750.06;4952488;28;105057;-62
2022/08/08 03:18:51;;;;;;;4.30;3.90;;;;;;;13.71;100.00;96754.06;4953181;28;102311;-61
2022/08/08 03:21:24;;;;;;;4.47;4.07;;;;;;;13.83;100.00;96754.66;4952758;28;104872;-62
2022/08/08 03:23:53;;;;;;;6.13;4.70;;;;;;;13.85;100.00;96757.88;4952339;28;105819;-62
2022/08/08 03:26:31;;;;;;;5.00;4.57;;;;;;;13.86;100.00;96756.81;4956277;28;102066;-62
2022/08/08 03:29:04;;;;;;;4.97;4.47;;;;;;;13.88;100.00;96755.50;4952535;28;105214;-62
2022/08/08 03:34:17;;;;;;;4.10;3.90;;;;;;;13.62;100.00;96753.78;4969395;28;102805;-62
2022/08/08 03:36:45;;;;;;;3.80;3.60;;;;;;;13.59;100.00;96762.31;4952494;28;105171;-62
2022/08/08 03:39:14;;;;;;;4.03;3.73;;;;;;;13.64;100.00;96753.50;4952831;28;102200;-62
2022/08/08 03:41:42;;;;;;;4.10;3.80;;;;;;;13.65;100.00;96757.78;4953079;28;104801;-62
2022/08/08 03:44:10;;;;;;;4.30;4.00;;;;;;;13.45;100.00;96758.50;4952123;28;105104;-62
2022/08/08 03:46:44;;;;;;;4.10;3.80;;;;;;;13.37;100.00;96763.53;4989166;28;101906;-62
2022/08/08 03:49:18;;;;;;;3.57;3.30;;;;;;;13.21;100.00;96754.63;5032954;28;105185;-62
2022/08/08 03:51:46;;;;;;;4.07;3.77;;;;;;;13.28;100.00;96754.38;5029837;28;102056;-62
2022/08/08 03:54:15;;;;;;;4.13;3.83;;;;;;;13.35;100.00;96758.44;5030065;28;104948;-62
2022/08/08 03:56:43;;;;;;;3.97;3.60;;;;;;;13.34;100.00;96754.16;5029351;28;103770;-62
2022/08/08 03:59:10;;;;;;;4.00;3.70;;;;;;;13.37;100.00;96760.84;5013255;28;101875;-62
2022/08/08 04:01:41;;;;;;;3.97;3.57;;;;;;;12.98;100.00;96763.00;5029709;28;105233;-62
2022/08/08 04:04:09;;;;;;;4.00;3.70;;;;;;;12.89;100.00;96769.84;5029217;28;105525;-62
2022/08/08 04:06:40;;;;;;;4.27;3.97;;;;;;;12.90;100.00;96775.97;5029857;28;101951;-62
2022/08/08 04:09:09;;;;;;;3.93;3.63;;;;;;;12.96;100.00;96766.97;5029784;28;105114;-62
2022/08/08 04:11:43;;;;;;;4.80;4.30;;;;;;;12.98;100.00;96768.31;5032445;28;105319;-62
2022/08/08 04:14:10;;;;;;;4.30;3.90;;;;;;;12.98;100.00;96764.88;5012854;28;105469;-62
2022/08/08 04:16:39;;;;;;;4.57;4.10;;;;;;;13.07;100.00;96774.00;5062945;27;105398;-62
2022/08/08 04:19:07;;;;;;;6.10;4.50;;;;;;;12.97;100.00;96771.28;5029619;28;101995;-62
2022/08/08 04:21:34;;;;;;;4.67;4.27;;;;;;;12.89;100.00;96782.38;5029744;28;105005;-62
2022/08/08 04:24:01;;;;;;;5.27;4.83;;;;;;;12.83;100.00;96783.41;5027938;27;104193;-62
2022/08/08 04:26:29;;;;;;;5.43;4.93;;;;;;;13.00;100.00;96784.91;5029455;28;101928;-62
2022/08/08 04:28:59;;;;;;;4.87;4.47;;;;;;;13.05;100.00;96781.47;5029393;28;104795;-62
2022/08/08 04:31:28;;;;;;;5.20;4.70;;;;;;;13.11;100.00;96783.09;5032226;28;105251;-62
2022/08/08 04:33:55;;;;;;;4.60;4.30;;;;;;;13.14;100.00;96787.94;5029371;28;105681;-62
2022/08/08 04:36:23;;;;;;;5.80;4.40;;;;;;;13.26;100.00;96793.91;5028585;28;105748;-62
2022/08/08 04:38:50;;;;;;;4.93;4.53;;;;;;;13.33;100.00;96791.81;5029373;28;101951;-62
2022/08/08 04:41:17;;;;;;;4.60;4.23;;;;;;;13.39;100.00;96782.75;5029188;28;104441;-62
2022/08/08 04:43:45;;;;;;;4.33;3.90;;;;;;;13.30;100.00;96795.78;5028736;28;105344;-62
2022/08/08 04:46:16;;;;;;;4.30;4.00;;;;;;;13.47;100.00;96795.66;5029310;28;101784;-62
2022/08/08 04:48:44;;;;;;;4.40;4.00;;;;;;;13.53;100.00;96799.97;5028781;28;105491;-62
2022/08/08 04:51:10;;;;;;;4.20;3.90;;;;;;;13.61;100.00;96797.59;5028193;28;106693;-62
2022/08/08 04:53:38;;;;;;;4.10;3.70;;;;;;;13.61;100.00;96794.09;5032885;28;102088;-62
2022/08/08 04:56:07;;;;;;;4.67;4.37;;;;;;;13.66;100.00;96800.31;5028483;28;105468;-62
2022/08/08 04:58:36;;;;;;;4.50;4.10;;;;;;;13.64;100.00;96802.44;5029224;28;102000;-62
2022/08/08 05:01:05;;;;;;;4.43;4.13;;;;;;;13.70;100.00;96805.94;5028885;28;104839;-62
2022/08/08 05:03:35;;;;;;;4.13;3.83;;;;;;;13.79;100.00;96813.19;5028086;28;105034;-62
2022/08/08 05:06:03;;;;;;;4.87;4.40;;;;;;;13.84;100.00;96815.88;5029145;28;101917;-62
2022/08/08 05:08:31;;;;;;;5.33;4.23;;;;;;;14.00;100.00;96808.75;5029071;28;104880;-62
2022/08/08 05:10:58;;;;;;;4.30;4.00;;;;;;;14.15;100.00;96808.78;5028463;28;104928;-62
2022/08/08 05:13:25;;;;;;;5.00;4.60;;;;;;;14.26;100.00;96810.47;5028776;28;101868;-62
2022/08/08 05:15:53;;;;;;;4.60;4.23;;;;;;;14.29;100.00;96816.09;5031271;28;105068;-62
2022/08/08 05:18:20;;;;;;;5.73;5.07;;;;;;;14.32;100.00;96818.25;5028773;28;102198;-62
2022/08/08 05:20:49;;;;;;;5.53;5.03;;;;;;;14.37;100.00;96825.47;5029008;28;105052;-62
2022/08/08 05:23:16;;;;;;;4.47;4.17;;;;;;;14.55;100.00;96827.69;5027795;28;104995;-62
2022/08/08 05:25:43;;;;;;;5.23;4.73;;;;;;;14.76;100.00;96822.09;5028847;28;101807;-62
2022/08/08 05:28:10;;;;;;;6.60;5.10;;;;;;;14.92;100.00;96826.41;5028546;28;104682;-62
2022/08/08 05:30:38;;;;;;;5.23;4.77;;;;;;;15.06;100.00;96830.16;5027936;28;105097;-62
2022/08/08 05:33:06;;;;;;;4.60;4.20;;;;;;;15.18;100.00;96829.88;5028741;28;101983;-62
2022/08/08 05:35:35;;;;;;;4.80;4.37;;;;;;;15.27;100.00;96829.06;5028731;27;105304;-62
2022/08/08 05:38:09;;;;;;;5.30;4.90;;;;;;;15.41;100.00;96835.53;5034932;28;105078;-62
2022/08/08 05:40:47;;;;;;;5.17;4.73;;;;;;;15.56;100.00;96840.06;5033750;28;102626;-62
2022/08/08 05:43:22;;;;;;;5.20;4.70;;;;;;;15.67;100.00;96839.78;5032987;28;103234;-62
2022/08/08 05:45:50;;;;;;;6.07;5.47;;;;;;;15.73;100.00;96830.66;5032033;28;101994;-62
2022/08/08 05:48:17;;;;;;;4.93;4.53;;;;;;;15.91;100.00;96829.28;5032060;28;105258;-62
2022/08/08 05:50:45;;;;;;;4.80;4.50;;;;;;;16.08;100.00;96827.88;5031427;28;103832;-62
2022/08/08 05:53:14;;;;;;;5.47;4.97;;;;;;;16.25;100.00;96830.22;5031873;28;101873;-62
2022/08/08 05:55:44;;;;;;;4.60;4.20;;;;;;;16.37;100.00;96828.03;5033641;28;102454;-62
2022/08/08 05:58:13;;;;;;;4.97;4.60;;;;;;;16.41;100.00;96829.91;5031326;28;105446;-62
2022/08/08 06:00:44;;;;;;;4.70;4.40;;;;;;;16.61;100.00;96834.34;5034834;28;102141;-62
2022/08/08 06:03:16;;;;;;;5.33;4.90;;;;;;;16.63;100.00;96832.22;5031251;28;105120;-62
2022/08/08 06:05:50;;;;;;;5.47;4.97;;;;;;;16.42;100.00;96830.72;5031875;28;101838;-62
2022/08/08 06:08:24;;;;;;;5.43;4.90;;;;;;;16.40;100.00;96843.63;5031764;28;104730;-62
2022/08/08 06:10:54;;;;;;;5.73;4.87;;;;;;;16.36;100.00;96839.84;5031166;28;105493;-62
2022/08/08 06:13:23;;;;;;;5.83;4.90;;;;;;;16.17;100.00;96841.50;5031397;28;101931;-62
2022/08/08 06:15:53;;;;;;;5.60;5.13;;;;;;;16.26;100.00;96840.69;5031516;28;104882;-62
2022/08/08 06:18:28;;;;;;;5.37;4.97;;;;;;;16.32;100.00;96846.81;5031056;28;104785;-62
2022/08/08 06:20:58;;;;;;;5.00;4.50;;;;;;;16.41;100.00;96843.31;5031674;28;102080;-62
2022/08/08 06:23:29;;;;;;;5.60;4.90;;;;;;;16.35;100.00;96840.94;5034211;28;105162;-62
2022/08/08 06:26:03;;;;;;;6.33;5.17;;;;;;;16.55;100.00;96843.53;5031487;28;102067;-62
2022/08/08 06:28:32;;;;;;;5.47;4.97;;;;;;;16.70;100.00;96848.81;5031615;28;105253;-62
2022/08/08 06:31:02;;;;;;;5.30;4.80;;;;;;;16.87;100.00;96858.13;5030565;28;105500;-62
2022/08/08 06:33:43;;;;;;;5.87;4.93;;;;;;;17.26;100.00;96853.53;5031384;28;101875;-62
2022/08/08 06:36:12;;;;;;;6.53;4.97;;;;;;;17.50;100.00;96856.34;5031415;28;104759;-62
2022/08/08 06:38:46;;;;;;;5.17;4.57;;;;;;;17.59;100.00;96851.94;5031771;28;102790;-62
2022/08/08 06:41:17;;;;;;;5.57;4.70;;;;;;;17.81;100.00;96863.81;5031311;28;101870;-62
2022/08/08 06:43:49;;;;;;;8.10;4.83;;;;;;;18.04;100.00;96854.97;5034230;28;104564;-62
2022/08/08 06:46:20;;;;;;;5.07;4.50;;;;;;;17.94;100.00;96859.66;5030831;27;102187;-62
2022/08/08 06:48:49;;;;;;;5.20;4.47;;;;;;;17.98;100.00;96855.34;5030952;28;105299;-62
2022/08/08 06:51:17;;;;;;;5.03;4.63;;;;;;;17.96;100.00;96863.69;5064566;27;105221;-62
2022/08/08 06:53:46;;;;;;;5.30;4.80;;;;;;;17.97;100.00;96867.16;5031018;28;102009;-62
2022/08/08 06:56:14;;;;;;;5.83;4.67;;;;;;;18.16;100.00;96857.28;5030917;28;105018;-62
2022/08/08 06:58:42;;;;;;;4.53;4.23;;;;;;;18.07;100.00;96865.19;5030371;28;105296;-62
2022/08/08 07:01:13;;;;;;;5.10;4.70;;;;;;;18.12;100.00;96870.50;5030810;28;101885;-62
2022/08/08 07:03:53;;;;;;;4.90;4.60;;;;;;;17.84;100.00;96870.53;5030838;28;105059;-62
2022/08/08 07:06:24;;;;;;;5.70;4.97;;;;;;;17.87;100.00;96867.28;5033352;28;105644;-62
2022/08/08 07:08:58;;;;;;;5.57;5.07;;;;;;;17.74;100.00;96865.25;5031099;28;105097;-62
2022/08/08 07:11:29;;;;;;;6.33;5.70;;;;;;;17.64;100.00;96860.78;5029926;28;105690;-62
2022/08/08 07:14:01;;;;;;;5.30;4.80;;;;;;;17.51;100.00;96869.50;5030798;28;101818;-62
2022/08/08 07:16:50;;;;;;;5.70;5.20;;;;;;;17.82;100.00;96876.19;5030387;28;104751;-62
2022/08/08 07:19:30;;;;;;;5.10;4.70;;;;;;;18.11;100.00;96876.16;5029886;28;105759;-62
2022/08/08 07:22:03;;;;;;;5.33;4.83;;;;;;;18.58;100.00;96870.81;5030854;28;101913;-62
2022/08/08 07:24:38;;;;;;;6.77;5.93;;;;;;;18.57;100.00;96869.19;5030500;28;105157;-62
2022/08/08 07:27:07;;;;;;;6.23;5.83;;;;;;;18.73;100.00;96873.28;5029908;28;105120;-62
2022/08/08 07:29:36;;;;;;;6.60;6.10;;;;;;;18.47;100.00;96867.41;5033820;28;101892;-62
2022/08/08 07:32:07;;;;;;;6.70;6.13;;;;;;;18.39;100.00;96875.34;5029487;28;105541;-62
2022/08/08 07:34:35;;;;;;;6.77;6.17;;;;;;;18.47;100.00;96880.88;5030388;28;101870;-62
2022/08/08 07:37:11;;;;;;;6.33;5.73;;;;;;;18.72;100.00;96882.47;5030341;28;105100;-62
2022/08/08 07:39:42;;;;;;;6.60;5.80;;;;;;;18.80;100.00;96887.22;5029827;28;103861;-62
2022/08/08 07:42:12;;;;;;;6.47;5.90;;;;;;;18.65;100.00;96882.81;5030131;28;101879;-62
2022/08/08 07:44:41;;;;;;;6.10;5.60;;;;;;;19.02;100.00;96887.44;5030243;28;104879;-62
2022/08/08 07:47:10;;;;;;;6.77;6.17;;;;;;;18.85;100.00;96882.53;5029510;28;105657;-62
2022/08/08 07:49:39;;;;;;;6.00;5.50;;;;;;;19.16;100.00;96888.31;5030201;28;102116;-62
2022/08/08 07:52:09;;;;;;;6.40;5.83;;;;;;;19.13;100.00;96888.91;5034313;27;103575;-62
2022/08/08 07:54:46;;;;;;;5.97;5.47;;;;;;;19.40;100.00;96883.66;5030188;28;102126;-62
2022/08/08 07:57:23;;;;;;;6.10;5.40;;;;;;;19.75;100.00;96883.06;5031267;27;102971;-62
2022/08/08 08:00:02;;;;;;;5.43;5.03;;;;;;;20.07;100.00;96880.38;5028383;27;105299;-62
2022/08/08 08:02:39;;;;;;;6.13;5.70;;;;;;;19.94;100.00;96884.63;5028169;27;101850;-62
2022/08/08 08:05:20;;;;;;;6.03;5.53;;;;;;;19.85;100.00;96885.59;5030095;28;105298;-62
2022/08/08 08:07:53;;;;;;;5.50;5.10;;;;;;;19.25;100.00;96881.19;5029058;28;105022;-62
2022/08/08 08:10:28;;;;;;;5.47;5.00;;;;;;;19.56;100.00;96882.34;5029949;28;102313;-62
2022/08/08 08:13:19;;;;;;;6.27;5.70;;;;;;;20.00;100.00;96879.94;5029957;28;105039;-62
2022/08/08 08:15:49;;;;;;;6.33;5.90;;;;;;;19.90;100.00;96874.72;5032647;28;105986;-62
2022/08/08 08:18:22;;;;;;;5.20;4.80;;;;;;;20.55;100.00;96878.91;5030717;28;102415;-62
2022/08/08 08:20:52;;;;;;;6.30;5.37;;;;;;;21.17;100.00;96880.81;5029134;28;105063;-62
2022/08/08 08:23:20;;;;;;;5.50;5.13;;;;;;;21.73;100.00;96883.81;5029325;28;101911;-62
2022/08/08 08:25:50;;;;;;;5.83;5.40;;;;;;;21.18;100.00;96879.69;5029507;28;105241;-62
2022/08/08 08:28:18;;;;;;;6.90;6.20;;;;;;;20.58;100.00;96883.69;5028967;28;104975;-62
2022/08/08 08:30:46;;;;;;;5.77;5.27;;;;;;;20.65;100.00;96884.09;5029178;28;101902;-62
2022/08/08 08:33:13;;;;;;;5.20;4.80;;;;;;;20.77;100.00;96881.66;5029535;28;105290;-62
2022/08/08 08:35:41;;;;;;;5.43;4.93;;;;;;;20.86;100.00;96877.13;5028904;28;105045;-62
2022/08/08 08:38:09;;;;;;;4.70;4.40;;;;;;;21.36;100.00;96879.53;5032650;28;102008;-62
2022/08/08 08:40:36;;;;;;;5.53;5.00;;;;;;;21.41;100.00;96878.63;5028697;28;105539;-62
2022/08/08 08:43:08;;;;;;;6.10;5.50;;;;;;;21.16;100.00;96879.22;5029397;28;102042;-62
2022/08/08 08:45:36;;;;;;;6.80;5.27;;;;;;;20.99;100.00;96879.84;5029463;28;104818;-62
2022/08/08 08:48:05;;;;;;;4.53;4.17;;;;;;;21.63;100.00;96884.03;5028547;28;105690;-62
2022/08/08 08:50:38;;;;;;;4.77;4.43;;;;;;;21.87;100.00;96884.53;5029319;28;101875;-62
2022/08/08 08:53:11;;;;;;;5.10;4.60;;;;;;;22.29;100.00;96881.25;5029356;28;105041;-62
2022/08/08 08:55:40;;;;;;;4.97;4.47;;;;;;;22.07;100.00;96884.03;5028411;28;105290;-62
2022/08/08 08:58:21;;;;;;;4.73;4.27;;;;;;;21.91;100.00;96885.53;5032558;28;101836;-62
2022/08/08 09:00:49;;;;;;;4.10;3.70;;;;;;;22.56;100.00;96889.22;5028284;28;105352;-62
2022/08/08 09:03:17;;;;;;;3.17;2.87;;;;;;;22.89;100.00;96879.56;5028897;28;102236;-62
2022/08/08 09:05:47;;;;;;;3.17;2.90;;;;;;;23.18;100.00;96888.72;5029172;28;105048;-62
2022/08/08 09:08:15;;;;;;;3.30;3.10;;;;;;;23.66;100.00;96888.56;5029582;28;102716;-62
2022/08/08 09:10:44;;;;;;;2.83;2.63;;;;;;;24.00;100.00;96889.34;5028615;28;102182;-62
2022/08/08 09:13:15;;;;;;;3.23;2.33;;;;;;;23.90;100.00;96891.59;5028955;28;105498;-62
2022/08/08 09:15:43;;;;;;;2.70;2.50;;;;;;;24.32;100.00;96887.97;5027896;28;105163;-62
2022/08/08 09:18:12;;;;;;;2.80;2.60;;;;;;;24.44;100.00;96891.59;5028736;28;102118;-62
2022/08/08 09:20:42;;;;;;;2.40;2.20;;;;;;;24.51;100.00;96886.44;5031631;28;105246;-62
2022/08/08 09:23:10;;;;;;;2.37;2.17;;;;;;;24.81;100.00;96887.28;5028390;28;101907;-62
2022/08/08 09:25:37;;;;;;;4.07;2.20;;;;;;;24.67;100.00;96886.69;5028624;28;104927;-62
2022/08/08 09:28:05;;;;;;;3.83;2.00;;;;;;;24.77;100.00;96892.59;5028065;28;105234;-62
2022/08/08 09:30:38;;;;;;;2.70;2.00;;;;;;;24.95;100.00;96896.00;5028457;28;101865;-62
2022/08/08 09:33:10;;;;;;;2.30;2.10;;;;;;;25.07;100.00;96883.25;5062858;27;105467;-62
2022/08/08 09:35:39;;;;;;;3.33;2.70;;;;;;;24.65;100.00;96883.53;5027708;28;105537;-62
2022/08/08 09:38:10;;;;;;;2.33;2.13;;;;;;;24.85;100.00;96888.22;5028385;28;101998;-62
2022/08/08 09:40:42;;;;;;;2.67;2.47;;;;;;;25.18;97.70;96895.34;5062560;27;104913;-62
2022/08/08 09:43:19;;;;;;;1.93;1.80;;;;;;;25.43;92.98;96891.69;5031588;28;105377;-62
2022/08/08 09:45:52;;;;;;;2.83;1.97;;;;;;;25.35;94.56;96887.13;5030193;27;102249;-62
2022/08/08 09:48:19;;;;;;;1.80;1.70;;;;;;;25.71;98.26;96886.50;5028124;28;103134;-62
2022/08/08 09:50:47;;;;;;;2.07;1.97;;;;;;;25.73;94.40;96890.44;5028402;28;101938;-62
2022/08/08 09:53:20;;;;;;;1.93;1.80;;;;;;;25.99;91.12;96885.56;5028107;28;105313;-62
2022/08/08 09:55:47;;;;;;;2.27;2.07;;;;;;;25.12;95.37;96876.84;5027803;28;105864;-62
2022/08/08 09:58:20;;;;;;;2.07;1.90;;;;;;;25.82;90.22;96885.72;5028194;28;101852;-62
2022/08/08 10:00:49;;;;;;;1.90;1.80;;;;;;;25.70;80.47;96876.69;5028137;28;105910;-62
2022/08/08 10:03:18;;;;;;;4.40;1.60;;;;;;;25.72;88.07;96880.69;5028691;28;102801;-62
2022/08/08 10:05:45;;;;;;;1.60;1.50;;;;;;;26.43;76.98;96873.84;5033337;28;101770;-62
2022/08/08 10:08:13;;;;;;;2.00;1.90;;;;;;;26.23;76.74;96869.28;5027586;28;105336;-62
2022/08/08 10:10:42;;;;;;;2.00;1.60;;;;;;;26.16;70.97;96877.22;5028329;28;102162;-62
2022/08/08 10:13:21;;;;;;;2.97;1.77;;;;;;;26.32;70.13;96880.09;5027991;28;103625;-62
2022/08/08 10:15:51;;;;;;;2.37;1.80;;;;;;;26.57;67.94;96881.72;5029011;28;102615;-62
2022/08/08 10:18:24;;;;;;;1.80;1.70;;;;;;;26.81;60.49;96874.34;5028016;28;103447;-62
2022/08/08 10:20:54;;;;;;;2.10;1.87;;;;;;;26.08;78.59;96866.41;5028139;28;105249;-62
2022/08/08 10:23:39;;;;;;;1.77;1.40;;;;;;;26.59;68.41;96874.03;5030707;28;102876;-62
2022/08/08 10:26:09;;;;;;;2.63;1.40;;;;;;;26.79;63.18;96881.28;5031642;28;102310;-62
2022/08/08 10:28:37;;;;;;;1.77;1.63;;;;;;;26.84;62.57;96881.88;5034410;28;103811;-62
2022/08/08 10:33:58;;;;;;;4.43;2.10;;;;;;;27.10;57.53;96887.75;5030227;28;104051;-62
2022/08/08 10:36:27;;;;;;;1.70;1.60;;;;;;;27.06;59.88;96878.66;5030632;28;105503;-62
2022/08/08 10:38:58;;;;;;;1.73;1.63;;;;;;;27.49;56.42;96872.53;5031233;28;101932;-62
2022/08/08 10:41:31;;;;;;;1.53;1.43;;;;;;;27.64;54.48;96875.34;5032903;28;102367;-62
2022/08/08 10:43:59;;;;;;;1.70;1.60;;;;;;;27.46;55.43;96871.28;5032233;28;102925;-62
2022/08/08 10:46:30;;;;;;;1.60;1.50;;;;;;;27.42;61.93;96878.63;5031107;28;101933;-62
2022/08/08 10:48:59;;;;;;;2.73;1.73;;;;;;;27.55;58.12;96866.50;5031159;28;105180;-62
2022/08/08 10:51:28;;;;;;;1.57;1.47;;;;;;;27.75;56.22;96860.03;5033504;28;101678;-62
2022/08/08 10:53:56;;;;;;;3.13;1.80;;;;;;;28.14;59.63;96867.38;5030873;28;104150;-62
2022/08/08 10:56:24;;;;;;;1.70;1.60;;;;;;;28.03;56.14;96876.44;5030830;28;104991;-62
2022/08/08 10:58:57;;;;;;;1.70;1.60;;;;;;;27.93;54.05;96860.53;5030926;28;101910;-62
2022/08/08 11:01:29;;;;;;;2.03;1.60;;;;;;;28.25;56.59;96870.38;5064861;27;106461;-62
2022/08/08 11:03:59;;;;;;;2.67;1.70;;;;;;;28.60;51.18;96866.63;5030276;28;105104;-62
2022/08/08 11:06:29;;;;;;;2.20;1.73;;;;;;;28.41;55.65;96861.09;5030770;28;101769;-62
2022/08/08 11:09:01;;;;;;;1.60;1.50;;;;;;;27.99;54.74;96859.94;5032214;28;102328;-62
2022/08/08 11:11:38;;;;;;;1.90;1.40;;;;;;;28.11;51.33;96862.59;5033759;28;105262;-62
2022/08/08 11:14:06;;;;;;;1.60;1.50;;;;;;;28.65;49.66;96866.38;5030827;28;105651;-62
2022/08/08 11:16:36;;;;;;;2.57;1.27;;;;;;;28.80;49.04;96868.31;5029693;28;105611;-62
2022/08/08 11:19:05;;;;;;;1.63;1.53;;;;;;;28.85;47.84;96861.75;5030794;28;102006;-62
2022/08/08 11:21:35;;;;;;;1.40;1.30;;;;;;;28.65;48.94;96862.81;5030641;28;104989;-62
2022/08/08 11:24:05;;;;;;;1.73;1.40;;;;;;;28.58;47.92;96865.41;5029936;28;104752;-62
2022/08/08 11:26:37;;;;;;;1.60;1.50;;;;;;;28.85;47.08;96864.47;5030561;28;102183;-62
2022/08/08 11:29:06;;;;;;;1.67;1.43;;;;;;;28.87;46.68;96862.19;5030214;28;104760;-62
2022/08/08 11:31:38;;;;;;;1.50;1.30;;;;;;;28.07;47.58;96863.66;5029744;28;105236;-62
2022/08/08 11:34:07;;;;;;;1.23;1.10;;;;;;;28.17;49.31;96861.19;5033763;28;101785;-62
2022/08/08 11:36:37;;;;;;;1.83;1.53;;;;;;;28.77;48.91;96860.00;5029602;28;105020;-62
2022/08/08 11:39:06;;;;;;;1.45;1.35;;;;;;;29.03;46.35;96858.31;5031602;28;101983;-62
2022/08/08 11:41:35;;;;;;;2.95;1.20;;;;;;;28.97;46.46;96861.66;5030199;28;106171;-62
2022/08/08 11:44:04;;;;;;;1.35;1.25;;;;;;;27.79;49.18;96857.44;5063769;27;102853;-62
2022/08/08 11:46:33;;;;;;;2.17;1.20;;;;;;;27.74;46.92;96860.38;5030423;28;101910;-62
2022/08/08 11:49:03;;;;;;;1.13;1.02;;;;;;;28.38;45.52;96855.53;5030172;28;104992;-62
2022/08/08 11:51:32;;;;;;;1.80;1.20;;;;;;;28.95;45.01;96861.19;5029451;28;105783;-62
2022/08/08 11:54:00;;;;;;;1.73;1.10;;;;;;;28.80;42.07;96856.53;5030147;28;102107;-62
2022/08/08 11:56:32;;;;;;;2.22;1.17;;;;;;;29.04;44.11;96861.84;5032937;28;103675;-62
2022/08/08 11:59:06;;;;;;;1.17;1.17;;;;;;;29.49;41.40;96857.38;5031507;28;101802;-62
2022/08/08 12:01:33;;;;;;;2.13;1.10;;;;;;;28.92;42.32;96848.22;5031229;28;102416;-62